Time;durP1;ratioP1;P1;durP2;ratioP2;P2;SDS_P1;SDS_P2;PMS_P1;PMS_P2;Temp;Humidity;BMP_temperature;BMP_pressure;BME280_temperature;BME280_humidity;BME280_pressure;Samples;Min_cycle;Max_cycle;Signal;HPM_P1;HPM_P2
2024/01/25 00:01:10;;;;;;;11.60;6.67;;;;;;;4.79;100.00;63428.22;5072806;28;20208;-54
2024/01/25 00:03:36;;;;;;;15.07;7.30;;;;;;;4.69;100.00;63412.38;5073219;28;20678;-55
2024/01/25 00:06:02;;;;;;;14.93;6.90;;;;;;;4.82;100.00;63429.56;5072882;28;20191;-53
2024/01/25 00:08:28;;;;;;;11.97;6.87;;;;;;;4.71;100.00;63419.53;5071395;28;20708;-54
2024/01/25 00:10:53;;;;;;;11.00;7.20;;;;;;;5.02;100.00;63451.31;5072907;28;20192;-53
2024/01/25 00:13:19;;;;;;;10.70;6.77;;;;;;;5.02;100.00;63450.78;5072657;28;20242;-54
2024/01/25 00:15:44;;;;;;;12.03;7.73;;;;;;;5.07;100.00;63456.75;5072567;28;20245;-54
2024/01/25 00:18:10;;;;;;;12.13;6.33;;;;;;;4.92;98.72;63440.44;5072690;28;20719;-56
2024/01/25 00:20:36;;;;;;;13.83;6.13;;;;;;;4.48;94.52;63392.56;5072507;28;20212;-54
2024/01/25 00:23:01;;;;;;;12.23;6.80;;;;;;;4.27;94.13;63369.72;5072232;28;20716;-54
2024/01/25 00:25:27;;;;;;;10.73;5.80;;;;;;;4.05;94.86;63348.31;5072808;28;20595;-56
2024/01/25 00:27:52;;;;;;;11.00;5.60;;;;;;;3.96;92.82;63339.06;5072712;28;20548;-53
2024/01/25 00:30:18;;;;;;;10.83;5.70;;;;;;;3.92;93.81;63331.69;5072387;28;20200;-54
2024/01/25 00:32:44;;;;;;;12.13;6.37;;;;;;;3.99;93.14;63341.78;5072059;28;20217;-55
2024/01/25 00:35:10;;;;;;;12.53;6.40;;;;;;;3.99;93.99;63339.84;5072205;28;20245;-54
2024/01/25 00:37:39;;;;;;;10.33;5.23;;;;;;;4.12;97.22;63353.97;5072010;28;20297;-54
2024/01/25 00:40:06;;;;;;;10.53;6.20;;;;;;;4.20;99.51;63365.16;5054121;28;20230;-54
2024/01/25 00:42:44;;;;;;;10.13;5.37;;;;;;;4.39;98.59;63382.78;5072266;28;20217;-54
2024/01/25 00:45:17;;;;;;;11.20;5.90;;;;;;;4.70;94.84;63419.00;5072205;28;20235;-54
2024/01/25 00:47:43;;;;;;;20.93;7.87;;;;;;;4.57;94.03;63404.28;5053960;28;20220;-54
2024/01/25 00:50:09;;;;;;;9.37;5.97;;;;;;;4.52;92.95;63394.44;5070930;28;20192;-54
2024/01/25 00:52:35;;;;;;;10.53;5.40;;;;;;;4.58;90.68;63408.44;5069720;28;20223;-56
2024/01/25 00:55:01;;;;;;;8.70;6.03;;;;;;;4.67;90.54;63415.72;5071760;28;20184;-54
2024/01/25 00:57:27;;;;;;;8.73;5.23;;;;;;;4.85;93.56;63432.81;5071895;28;20212;-54
2024/01/25 00:59:53;;;;;;;10.17;5.67;;;;;;;4.22;95.74;63364.81;5053926;28;20211;-56
2024/01/25 01:02:22;;;;;;;13.97;5.70;;;;;;;4.26;96.65;63371.66;5071481;28;20228;-55
2024/01/25 01:04:48;;;;;;;9.73;6.10;;;;;;;4.41;95.81;63384.94;5071230;28;20219;-54
2024/01/25 01:07:13;;;;;;;8.37;5.13;;;;;;;4.47;96.48;63391.47;5053826;28;20213;-57
2024/01/25 01:09:39;;;;;;;9.67;6.03;;;;;;;4.10;98.71;63356.25;5070134;28;20654;-53
2024/01/25 01:12:05;;;;;;;11.17;5.70;;;;;;;4.34;97.99;63376.81;5071225;28;20213;-54
2024/01/25 01:14:30;;;;;;;11.93;6.27;;;;;;;4.49;98.49;63390.59;5053460;28;20198;-53
2024/01/25 01:16:56;;;;;;;12.27;7.50;;;;;;;4.54;96.45;63399.09;5071416;28;20760;-54
2024/01/25 01:19:21;;;;;;;15.23;7.93;;;;;;;4.19;97.57;63364.06;5053521;28;20274;-54
2024/01/25 01:21:47;;;;;;;13.57;7.47;;;;;;;4.42;95.37;63388.00;5071268;28;20291;-53
2024/01/25 01:24:13;;;;;;;14.43;6.93;;;;;;;4.56;93.57;63398.78;5071368;28;20185;-59
2024/01/25 01:26:38;;;;;;;13.03;7.40;;;;;;;4.40;90.08;63383.31;5071216;28;20189;-54
2024/01/25 01:29:04;;;;;;;13.57;7.80;;;;;;;4.41;89.80;63384.94;5071413;28;20226;-53
2024/01/25 01:31:30;;;;;;;12.33;7.27;;;;;;;4.30;91.67;63373.00;5071343;28;20189;-52
2024/01/25 01:33:55;;;;;;;11.53;7.67;;;;;;;4.42;91.66;63388.53;5071676;28;20184;-53
2024/01/25 01:36:21;;;;;;;11.00;7.20;;;;;;;4.43;91.75;63389.63;5071291;28;20203;-56
2024/01/25 01:38:47;;;;;;;11.23;7.10;;;;;;;4.42;93.08;63386.03;5071382;28;20217;-55
2024/01/25 01:41:13;;;;;;;13.27;7.70;;;;;;;4.51;94.76;63395.81;5071017;28;20219;-54
2024/01/25 01:43:40;;;;;;;12.77;7.30;;;;;;;4.60;93.76;63408.13;5071051;28;20285;-55
2024/01/25 01:46:36;;;;;;;10.20;5.90;;;;;;;4.69;91.59;63415.41;5071138;28;20192;-55
2024/01/25 01:49:03;;;;;;;11.97;6.80;;;;;;;4.81;93.56;63427.91;5071109;28;20278;-56
2024/01/25 01:51:31;;;;;;;12.40;8.20;;;;;;;5.00;91.55;63446.66;5071095;28;20224;-54
2024/01/25 01:53:57;;;;;;;10.80;6.80;;;;;;;5.06;91.72;63453.19;5070926;28;20658;-53
2024/01/25 01:56:26;;;;;;;13.40;6.37;;;;;;;5.12;90.40;63461.66;5071081;28;20222;-55
2024/01/25 01:58:54;;;;;;;9.17;6.20;;;;;;;5.13;90.31;63460.25;5053009;28;20357;-56
2024/01/25 02:01:20;;;;;;;9.23;5.93;;;;;;;5.08;90.68;63457.84;5053136;28;20219;-55
2024/01/25 02:03:46;;;;;;;12.23;6.67;;;;;;;4.92;91.84;63442.38;5070657;28;20230;-58
2024/01/25 02:06:12;;;;;;;10.47;5.77;;;;;;;4.93;89.58;63439.03;5070807;28;20639;-55
2024/01/25 02:08:38;;;;;;;10.07;5.87;;;;;;;4.77;92.53;63426.06;5071350;28;20209;-55
2024/01/25 02:11:04;;;;;;;10.77;6.73;;;;;;;4.70;94.99;63414.00;5070819;28;20180;-55
2024/01/25 02:13:29;;;;;;;11.83;7.07;;;;;;;4.26;97.40;63368.66;5070613;28;20221;-55
2024/01/25 02:15:55;;;;;;;12.73;7.73;;;;;;;4.23;97.37;63365.94;5070843;28;20705;-56
2024/01/25 02:18:20;;;;;;;16.67;8.20;;;;;;;4.22;97.58;63366.78;5071079;28;20213;-54
2024/01/25 02:20:46;;;;;;;17.30;9.00;;;;;;;4.23;99.20;63365.94;5037669;28;20682;-53
2024/01/25 02:23:11;;;;;;;18.20;8.57;;;;;;;3.94;100.00;63334.38;5074544;28;20212;-54
2024/01/25 02:25:37;;;;;;;18.60;9.33;;;;;;;4.30;99.22;63374.94;5074276;28;20176;-54
2024/01/25 02:28:02;;;;;;;21.50;9.83;;;;;;;4.24;100.00;63366.47;5056190;28;20228;-55
2024/01/25 02:30:28;;;;;;;18.07;9.40;;;;;;;4.34;99.57;63379.28;5074157;28;20214;-53
2024/01/25 02:32:54;;;;;;;22.20;10.47;;;;;;;4.28;99.90;63373.31;5074223;28;20244;-56
2024/01/25 02:35:20;;;;;;;19.13;10.23;;;;;;;4.20;100.00;63364.63;5074232;28;20570;-56
2024/01/25 02:37:46;;;;;;;20.13;9.60;;;;;;;4.28;100.00;63370.28;5073839;28;20255;-55
2024/01/25 02:40:12;;;;;;;15.53;9.30;;;;;;;4.19;100.00;63363.53;5073967;28;20219;-55
2024/01/25 02:42:37;;;;;;;15.63;9.73;;;;;;;4.19;100.00;63359.09;5074214;28;20208;-53
2024/01/25 02:45:03;;;;;;;19.70;10.23;;;;;;;4.25;100.00;63370.59;5074214;28;20242;-52
2024/01/25 02:47:29;;;;;;;14.50;8.90;;;;;;;4.54;100.00;63401.03;5073785;28;20207;-54
2024/01/25 02:49:55;;;;;;;15.40;8.90;;;;;;;4.61;100.00;63406.69;5073867;28;20227;-55
2024/01/25 02:52:20;;;;;;;17.27;9.70;;;;;;;4.49;100.00;63393.66;5073877;28;20203;-55
2024/01/25 02:54:45;;;;;;;16.23;8.50;;;;;;;4.36;100.00;63379.53;5073851;28;20306;-55
2024/01/25 02:57:11;;;;;;;13.47;8.37;;;;;;;4.34;100.00;63374.84;5073885;28;20267;-53
2024/01/25 02:59:37;;;;;;;16.10;8.83;;;;;;;4.14;100.00;63356.13;5055752;28;20681;-54
2024/01/25 03:02:03;;;;;;;18.67;9.07;;;;;;;4.34;100.00;63377.34;5073703;28;20224;-54
2024/01/25 03:04:29;;;;;;;20.83;9.37;;;;;;;4.35;100.00;63378.44;5073626;28;20196;-53
2024/01/25 03:06:54;;;;;;;13.80;9.13;;;;;;;4.36;100.00;63379.53;5055486;28;20212;-54
2024/01/25 03:09:21;;;;;;;16.97;9.30;;;;;;;4.54;100.00;63398.56;5055212;28;20263;-53
2024/01/25 03:11:46;;;;;;;16.93;8.30;;;;;;;4.52;100.00;63396.94;5071314;28;20453;-54
2024/01/25 03:14:12;;;;;;;12.77;7.17;;;;;;;4.10;100.00;63353.75;5053334;28;20190;-53
2024/01/25 03:16:38;;;;;;;14.20;7.60;;;;;;;4.00;100.00;63340.38;5071192;28;20184;-53
2024/01/25 03:19:03;;;;;;;15.03;5.60;;;;;;;4.14;100.00;63358.63;5071319;28;20191;-55
2024/01/25 03:21:29;;;;;;;8.87;5.40;;;;;;;4.52;100.00;63394.44;5073098;28;20215;-52
2024/01/25 03:23:54;;;;;;;3.10;1.73;;;;;;;5.44;100.00;63498.44;5073248;28;20286;-53
2024/01/25 03:26:20;;;;;;;2.63;1.10;;;;;;;6.36;100.00;63595.63;5055309;28;20227;-53
2024/01/25 03:28:46;;;;;;;1.07;0.50;;;;;;;6.91;100.00;63655.59;5073129;28;20227;-54
2024/01/25 03:31:12;;;;;;;0.60;0.60;;;;;;;7.16;99.41;63682.31;5072630;28;20188;-63
2024/01/25 03:33:37;;;;;;;1.73;0.50;;;;;;;7.17;98.69;63685.91;5072922;28;20236;-54
2024/01/25 03:36:04;;;;;;;0.80;0.53;;;;;;;7.23;98.61;63689.94;5055550;28;20238;-55
2024/01/25 03:38:30;;;;;;;0.57;0.47;;;;;;;7.20;98.51;63689.19;5055124;28;20209;-55
2024/01/25 03:40:58;;;;;;;0.40;0.40;;;;;;;7.19;98.61;63685.59;5073139;28;20216;-57
2024/01/25 03:43:25;;;;;;;0.67;0.33;;;;;;;7.24;98.55;63688.53;5073008;28;20238;-55
2024/01/25 03:45:51;;;;;;;0.97;0.90;;;;;;;7.13;98.77;63679.03;5073175;28;20188;-54
2024/01/25 03:48:18;;;;;;;0.80;0.67;;;;;;;7.18;98.08;63682.53;5073968;28;20201;-56
2024/01/25 03:50:44;;;;;;;0.87;0.47;;;;;;;7.12;98.32;63677.94;5054935;28;20195;-56
2024/01/25 03:53:09;;;;;;;0.93;0.50;;;;;;;7.18;97.82;63684.50;5072890;28;20204;-55
2024/01/25 03:55:35;;;;;;;0.70;0.50;;;;;;;7.13;96.50;63677.06;5072897;28;20188;-56
2024/01/25 03:58:00;;;;;;;0.80;0.60;;;;;;;7.15;94.79;63681.22;5073175;28;20232;-55
2024/01/25 04:00:26;;;;;;;0.80;0.80;;;;;;;7.14;94.15;63680.13;5073271;28;20224;-58
2024/01/25 04:02:52;;;;;;;0.90;0.40;;;;;;;7.15;94.01;63683.72;5054576;28;20693;-54
2024/01/25 04:05:18;;;;;;;1.63;0.70;;;;;;;7.16;93.34;63685.38;5072853;28;20185;-54
2024/01/25 04:07:43;;;;;;;0.83;0.60;;;;;;;7.17;92.33;63683.94;5071290;28;20209;-54
2024/01/25 04:10:09;;;;;;;1.07;0.60;;;;;;;7.13;92.33;63676.53;5071469;28;20750;-53
2024/01/25 04:12:35;;;;;;;0.93;0.53;;;;;;;7.16;92.05;63679.81;5072808;28;20211;-62
2024/01/25 04:15:00;;;;;;;0.83;0.67;;;;;;;7.17;91.93;63683.41;5072711;28;20185;-54
2024/01/25 04:17:26;;;;;;;1.40;0.87;;;;;;;7.16;91.36;63680.34;5072566;28;20201;-54
2024/01/25 04:19:51;;;;;;;0.60;0.40;;;;;;;7.21;90.79;63685.25;5054531;28;20235;-54
2024/01/25 04:22:17;;;;;;;1.07;0.90;;;;;;;7.20;91.15;63686.66;5072595;28;20200;-55
2024/01/25 04:24:43;;;;;;;1.10;0.70;;;;;;;7.27;90.09;63694.31;5054433;28;20263;-56
2024/01/25 04:27:10;;;;;;;0.73;0.70;;;;;;;7.30;89.45;63700.09;5072379;28;20200;-55
2024/01/25 04:29:41;;;;;;;2.43;0.70;;;;;;;7.23;90.36;63690.47;5072203;28;20727;-55
2024/01/25 04:32:08;;;;;;;1.20;0.77;;;;;;;7.18;90.08;63682.53;5072060;28;20295;-55
2024/01/25 04:34:34;;;;;;;0.80;0.60;;;;;;;7.25;89.21;63692.13;5054233;28;20223;-56
2024/01/25 04:37:00;;;;;;;1.37;0.80;;;;;;;7.11;89.37;63674.34;5054252;28;20217;-55
2024/01/25 04:39:26;;;;;;;2.37;0.83;;;;;;;7.10;88.70;63678.25;5054319;28;20641;-55
2024/01/25 04:41:52;;;;;;;1.13;0.90;;;;;;;7.04;89.79;63667.25;5053955;28;20227;-55
2024/01/25 04:44:19;;;;;;;2.40;1.00;;;;;;;7.05;89.31;63668.34;5053755;28;20271;-56
2024/01/25 04:46:44;;;;;;;3.73;0.97;;;;;;;6.99;89.80;63664.31;5072336;28;20208;-55
2024/01/25 04:49:10;;;;;;;5.00;1.43;;;;;;;7.01;88.98;63665.97;5070659;28;20216;-54
2024/01/25 04:51:36;;;;;;;1.83;1.10;;;;;;;6.79;89.70;63645.00;5071432;28;20230;-55
2024/01/25 04:54:02;;;;;;;4.23;1.67;;;;;;;6.40;90.08;63600.53;5052221;28;20201;-54
2024/01/25 04:56:28;;;;;;;2.70;1.70;;;;;;;6.24;91.73;63585.06;5071803;28;20181;-54
2024/01/25 04:58:54;;;;;;;4.63;1.87;;;;;;;6.23;92.86;63581.47;5053891;28;20588;-53
2024/01/25 05:01:19;;;;;;;3.50;1.83;;;;;;;6.17;94.64;63575.47;5071552;28;20757;-54
2024/01/25 05:03:45;;;;;;;4.43;2.33;;;;;;;5.92;93.58;63548.22;5072078;28;20294;-54
2024/01/25 05:06:10;;;;;;;4.07;2.60;;;;;;;5.79;95.77;63534.06;5071909;28;20673;-54
2024/01/25 05:08:36;;;;;;;3.07;1.83;;;;;;;5.74;96.90;63529.16;5071657;28;20212;-54
2024/01/25 05:11:01;;;;;;;4.10;2.03;;;;;;;5.65;96.54;63519.38;5071698;28;20200;-54
2024/01/25 05:13:27;;;;;;;2.90;2.30;;;;;;;5.57;95.88;63510.66;5071573;28;20614;-53
2024/01/25 05:15:53;;;;;;;5.33;1.90;;;;;;;5.64;95.42;63520.22;5071440;28;20193;-53
2024/01/25 05:18:19;;;;;;;3.03;2.07;;;;;;;5.58;94.41;63508.69;5071910;28;20290;-55
2024/01/25 05:20:44;;;;;;;2.07;1.50;;;;;;;5.87;91.27;63545.84;5071465;28;20212;-55
2024/01/25 05:23:10;;;;;;;2.67;1.77;;;;;;;5.92;90.91;63546.28;5071643;28;20693;-53
2024/01/25 05:25:36;;;;;;;1.87;1.40;;;;;;;5.92;90.77;63546.28;5071437;28;20196;-53
2024/01/25 05:28:02;;;;;;;3.20;1.87;;;;;;;5.86;90.29;63541.69;5070147;28;20216;-54
2024/01/25 05:30:28;;;;;;;3.37;1.90;;;;;;;5.93;89.99;63551.84;5070037;28;20200;-54
2024/01/25 05:32:54;;;;;;;4.63;1.60;;;;;;;6.11;88.72;63571.44;5071532;28;20207;-54
2024/01/25 05:35:20;;;;;;;4.13;1.40;;;;;;;6.33;85.70;63592.34;5071309;28;20188;-56
2024/01/25 05:37:46;;;;;;;3.77;1.00;;;;;;;6.59;82.60;63618.75;5071044;28;20262;-55
2024/01/25 05:40:12;;;;;;;3.50;1.23;;;;;;;6.60;82.69;63622.34;5053216;28;20757;-53
2024/01/25 05:42:39;;;;;;;1.10;0.83;;;;;;;6.61;82.43;63622.88;5071116;28;20341;-55
2024/01/25 05:45:05;;;;;;;4.87;1.20;;;;;;;6.55;82.33;63616.88;5071160;28;20188;-55
2024/01/25 05:47:31;;;;;;;2.23;1.30;;;;;;;6.69;82.31;63631.59;5071109;28;20208;-56
2024/01/25 05:49:57;;;;;;;3.03;2.10;;;;;;;6.69;82.20;63632.16;5071050;28;20181;-54
2024/01/25 05:52:23;;;;;;;1.73;0.80;;;;;;;6.67;81.13;63629.97;5070893;28;20232;-54
2024/01/25 05:54:50;;;;;;;2.77;1.30;;;;;;;6.67;81.88;63629.97;5052430;28;20322;-56
2024/01/25 05:57:17;;;;;;;4.00;1.70;;;;;;;6.77;82.43;63637.81;5070928;28;20754;-56
2024/01/25 05:59:42;;;;;;;4.70;1.67;;;;;;;6.67;81.11;63626.91;5052830;28;20662;-55
2024/01/25 06:02:08;;;;;;;2.00;0.97;;;;;;;6.68;81.12;63630.53;5070686;28;20216;-55
2024/01/25 06:04:34;;;;;;;1.37;0.90;;;;;;;6.83;80.33;63646.34;5071080;28;20282;-55
2024/01/25 06:06:59;;;;;;;6.70;1.67;;;;;;;6.86;80.52;63647.63;5070780;28;20212;-57
2024/01/25 06:09:25;;;;;;;2.37;1.00;;;;;;;6.84;80.24;63645.47;5053001;28;20184;-56
2024/01/25 06:11:51;;;;;;;3.27;1.07;;;;;;;6.76;80.83;63636.75;5070796;28;20208;-55
2024/01/25 06:14:18;;;;;;;2.13;1.40;;;;;;;6.64;81.12;63626.72;5070848;28;20263;-55
2024/01/25 06:16:44;;;;;;;4.17;1.70;;;;;;;6.61;81.44;63622.88;5052797;28;20188;-55
2024/01/25 06:19:10;;;;;;;2.50;1.30;;;;;;;6.60;81.61;63624.84;5070835;28;20180;-56
2024/01/25 06:21:37;;;;;;;2.83;1.37;;;;;;;6.61;82.23;63625.94;5070844;28;20273;-55
2024/01/25 06:24:07;;;;;;;2.83;1.63;;;;;;;6.56;82.78;63617.44;5036390;28;20227;-56
2024/01/25 06:26:33;;;;;;;2.97;1.50;;;;;;;6.59;83.08;63620.69;5070488;28;20220;-57
2024/01/25 06:28:59;;;;;;;3.23;1.97;;;;;;;6.59;82.57;63618.19;5052975;28;20232;-55
2024/01/25 06:31:25;;;;;;;2.40;1.30;;;;;;;6.67;82.52;63632.47;5070837;28;20223;-54
2024/01/25 06:33:52;;;;;;;2.80;1.70;;;;;;;6.71;82.15;63634.31;5070791;28;20217;-55
2024/01/25 06:36:18;;;;;;;2.07;1.10;;;;;;;6.76;81.60;63642.28;5070643;28;20199;-55
2024/01/25 06:38:44;;;;;;;2.53;1.47;;;;;;;6.69;82.15;63632.16;5070180;28;20223;-56
2024/01/25 06:41:10;;;;;;;5.07;1.17;;;;;;;6.65;82.27;63625.28;5052175;28;20284;-56
2024/01/25 06:43:36;;;;;;;3.73;1.40;;;;;;;6.74;81.98;63634.56;5068788;28;20702;-56
2024/01/25 06:46:02;;;;;;;3.77;2.17;;;;;;;6.72;82.90;63637.94;5069009;28;20200;-55
2024/01/25 06:48:28;;;;;;;3.77;1.60;;;;;;;6.74;82.67;63637.59;5070739;28;20216;-60
2024/01/25 06:50:53;;;;;;;6.10;1.70;;;;;;;6.72;83.50;63635.44;5068955;28;20185;-53
2024/01/25 06:53:20;;;;;;;3.83;1.10;;;;;;;6.77;82.16;63637.81;5051312;28;20312;-54
2024/01/25 06:55:46;;;;;;;5.10;1.97;;;;;;;6.74;82.38;63640.13;5068623;28;20185;-55
2024/01/25 06:58:13;;;;;;;4.10;1.80;;;;;;;6.82;82.45;63645.22;5051685;28;20607;-54
2024/01/25 07:00:38;;;;;;;4.80;1.70;;;;;;;6.78;82.27;63641.41;5051669;28;20299;-55
2024/01/25 07:03:05;;;;;;;3.60;1.70;;;;;;;6.75;82.12;63636.19;5035308;28;20381;-53
2024/01/25 07:05:33;;;;;;;5.03;1.73;;;;;;;6.76;81.71;63639.78;5052276;28;20224;-53
2024/01/25 07:07:59;;;;;;;4.07;1.87;;;;;;;6.78;82.36;63641.41;5073446;28;20228;-54
2024/01/25 07:10:24;;;;;;;3.27;1.80;;;;;;;6.77;82.25;63643.38;5073676;28;20329;-55
2024/01/25 07:12:52;;;;;;;5.40;1.80;;;;;;;6.76;81.60;63639.78;5055357;28;20730;-55
2024/01/25 07:15:18;;;;;;;3.90;1.47;;;;;;;6.80;81.89;63641.09;5055832;28;20196;-55
2024/01/25 07:17:43;;;;;;;6.20;2.03;;;;;;;6.83;80.92;63643.81;5071599;28;20220;-54
2024/01/25 07:20:09;;;;;;;7.97;2.07;;;;;;;6.86;81.15;63647.09;5055354;28;20589;-55
2024/01/25 07:22:35;;;;;;;3.53;2.03;;;;;;;6.79;80.88;63640.00;5073200;28;20220;-53
2024/01/25 07:25:02;;;;;;;5.40;1.63;;;;;;;6.89;79.60;63655.38;5055386;28;20196;-58
2024/01/25 07:27:34;;;;;;;6.90;1.40;;;;;;;6.95;79.33;63662.44;5073262;28;20235;-57
2024/01/25 07:30:02;;;;;;;6.47;2.17;;;;;;;6.96;79.08;63663.00;5073198;28;20266;-54
2024/01/25 07:32:27;;;;;;;8.87;2.07;;;;;;;6.90;79.23;63651.44;5055130;28;20270;-55
2024/01/25 07:34:53;;;;;;;6.10;1.73;;;;;;;6.84;80.03;63647.97;5073402;28;20193;-55
2024/01/25 07:37:19;;;;;;;7.57;3.10;;;;;;;6.84;80.74;63647.41;5073293;28;20209;-56
2024/01/25 07:39:45;;;;;;;2.77;1.93;;;;;;;6.89;79.30;63652.88;5055086;28;20263;-56
2024/01/25 07:42:12;;;;;;;4.73;1.67;;;;;;;6.86;79.95;63649.59;5073004;28;20744;-57
2024/01/25 07:44:38;;;;;;;5.67;1.77;;;;;;;6.96;78.92;63661.03;5073001;28;20273;-56
2024/01/25 07:47:03;;;;;;;5.93;2.73;;;;;;;6.94;79.78;63658.31;5072081;28;20746;-56
2024/01/25 07:49:30;;;;;;;7.00;3.40;;;;;;;7.01;79.19;63663.44;5052647;28;20201;-55
2024/01/25 07:51:57;;;;;;;4.23;1.77;;;;;;;6.95;78.00;63659.41;5054033;28;20304;-54
2024/01/25 07:54:22;;;;;;;3.57;2.23;;;;;;;6.86;78.82;63649.59;5072541;28;20264;-55
2024/01/25 07:56:48;;;;;;;5.27;2.27;;;;;;;6.88;78.97;63654.28;5071552;28;20193;-54
2024/01/25 07:59:14;;;;;;;2.77;1.53;;;;;;;6.92;78.76;63656.13;5071592;28;20280;-53
2024/01/25 08:01:40;;;;;;;4.63;1.87;;;;;;;6.98;78.17;63663.22;5054094;28;20690;-59
2024/01/25 08:04:05;;;;;;;5.27;1.90;;;;;;;7.11;76.88;63679.38;5072964;28;20196;-58
2024/01/25 08:06:31;;;;;;;4.27;1.53;;;;;;;7.03;77.30;63665.63;5072581;28;20185;-56
2024/01/25 08:08:57;;;;;;;4.90;1.87;;;;;;;7.10;77.09;63678.25;5054676;28;20205;-55
2024/01/25 08:11:23;;;;;;;7.07;2.13;;;;;;;7.24;77.19;63691.03;5054773;28;20276;-56
2024/01/25 08:13:49;;;;;;;6.43;2.77;;;;;;;7.13;75.86;63679.56;5072689;28;20583;-54
2024/01/25 08:16:19;;;;;;;6.20;2.80;;;;;;;7.09;76.31;63675.22;5054568;28;20609;-55
2024/01/25 08:18:48;;;;;;;8.77;2.33;;;;;;;7.13;76.00;63681.56;5071657;28;20242;-54
2024/01/25 08:21:14;;;;;;;3.13;2.10;;;;;;;7.03;75.69;63670.66;5072538;28;20216;-54
2024/01/25 08:23:41;;;;;;;5.00;1.73;;;;;;;7.16;75.04;63684.81;5072219;28;20236;-56
2024/01/25 08:26:09;;;;;;;5.40;2.10;;;;;;;7.09;75.09;63672.72;5072164;28;20603;-55
2024/01/25 08:28:45;;;;;;;8.87;2.80;;;;;;;7.12;74.11;63678.50;5079892;22;20606;-54
2024/01/25 08:31:11;;;;;;;5.23;2.10;;;;;;;7.11;74.21;63677.41;5072274;28;20184;-54
2024/01/25 08:33:41;;;;;;;5.97;2.17;;;;;;;7.08;72.91;63676.63;5072361;28;20217;-55
2024/01/25 08:36:07;;;;;;;7.37;1.97;;;;;;;7.20;73.21;63686.66;5054152;28;20188;-58
2024/01/25 08:38:33;;;;;;;4.20;1.87;;;;;;;7.26;72.49;63695.72;5072672;28;20215;-55
2024/01/25 08:40:59;;;;;;;7.93;1.67;;;;;;;7.22;71.81;63688.84;5071539;28;20338;-54
2024/01/25 08:43:24;;;;;;;4.07;1.53;;;;;;;7.19;71.23;63686.13;5072200;28;20746;-54
2024/01/25 08:45:50;;;;;;;4.37;1.50;;;;;;;7.21;71.32;63687.78;5071354;28;20184;-55
2024/01/25 08:48:15;;;;;;;5.60;2.40;;;;;;;7.33;72.86;63698.34;5072320;28;20214;-53
2024/01/25 08:50:41;;;;;;;5.37;2.27;;;;;;;7.45;71.32;63708.94;5054096;28;20192;-54
2024/01/25 08:53:06;;;;;;;4.83;1.90;;;;;;;7.34;69.97;63704.44;5053857;28;20663;-54
2024/01/25 08:55:32;;;;;;;5.70;1.87;;;;;;;7.34;70.48;63699.97;5071960;28;20713;-54
2024/01/25 08:57:58;;;;;;;8.40;1.97;;;;;;;7.44;70.50;63712.84;5071856;28;20212;-55
2024/01/25 09:00:23;;;;;;;8.97;2.40;;;;;;;7.48;70.66;63717.22;5071879;28;20219;-57
2024/01/25 09:02:49;;;;;;;6.30;1.60;;;;;;;7.44;69.92;63713.41;5072077;28;20204;-56
2024/01/25 09:05:15;;;;;;;6.47;1.87;;;;;;;7.49;70.52;63716.34;5053864;28;20279;-55
2024/01/25 09:07:41;;;;;;;4.57;2.20;;;;;;;7.52;70.20;63721.56;5071989;28;20212;-53
2024/01/25 09:10:07;;;;;;;5.80;1.90;;;;;;;7.52;70.43;63722.13;5071718;28;20188;-53
2024/01/25 09:12:34;;;;;;;5.40;1.80;;;;;;;7.45;70.83;63713.94;5071697;28;20216;-55
2024/01/25 09:15:00;;;;;;;6.00;2.50;;;;;;;7.49;70.99;63716.34;5053916;28;20185;-56
2024/01/25 09:17:26;;;;;;;6.13;2.27;;;;;;;7.81;69.77;63750.72;5071483;28;20216;-54
2024/01/25 09:19:51;;;;;;;7.30;2.63;;;;;;;7.77;69.56;63748.88;5071638;28;20212;-55
2024/01/25 09:22:20;;;;;;;6.97;2.00;;;;;;;7.80;70.80;63752.13;5071760;28;20217;-53
2024/01/25 09:24:46;;;;;;;6.03;2.27;;;;;;;7.79;69.87;63750.50;5071551;28;20177;-53
2024/01/25 09:27:12;;;;;;;4.43;1.97;;;;;;;7.67;70.67;63737.97;5070537;28;20296;-54
2024/01/25 09:29:39;;;;;;;9.00;2.07;;;;;;;7.65;71.16;63733.78;5070092;28;20231;-56
2024/01/25 09:32:09;;;;;;;7.60;2.37;;;;;;;7.64;71.55;63735.22;5070292;28;20702;-56
2024/01/25 09:34:38;;;;;;;5.40;2.50;;;;;;;7.69;71.59;63742.66;5071159;28;20188;-54
2024/01/25 09:37:05;;;;;;;6.13;2.10;;;;;;;7.51;72.22;63718.53;5071089;28;20306;-55
2024/01/25 09:39:35;;;;;;;8.50;2.40;;;;;;;8.17;68.92;63789.47;5071207;28;20191;-57
2024/01/25 09:42:03;;;;;;;5.27;2.33;;;;;;;7.94;69.14;63764.91;5052942;28;20220;-56
2024/01/25 09:44:29;;;;;;;7.63;2.40;;;;;;;7.86;69.53;63758.69;5070950;28;20265;-56
2024/01/25 09:46:56;;;;;;;6.40;2.80;;;;;;;7.89;69.28;63761.41;5070994;28;20291;-55
2024/01/25 09:49:23;;;;;;;6.00;3.10;;;;;;;7.93;68.81;63766.34;5071160;28;20187;-55
2024/01/25 09:51:51;;;;;;;10.03;2.43;;;;;;;7.95;69.59;63766.00;5070952;28;20179;-56
2024/01/25 09:54:17;;;;;;;9.20;3.80;;;;;;;7.84;69.59;63754.00;5071090;28;20191;-54
2024/01/25 09:56:42;;;;;;;9.70;3.03;;;;;;;7.94;69.17;63767.41;5052034;28;20177;-54
2024/01/25 09:59:08;;;;;;;4.43;2.17;;;;;;;7.81;69.67;63752.69;5053000;28;20219;-54
2024/01/25 10:01:34;;;;;;;7.83;2.87;;;;;;;7.80;69.76;63752.13;5070715;28;20287;-55
2024/01/25 10:04:01;;;;;;;9.33;3.00;;;;;;;7.82;70.69;63754.31;5053068;28;20316;-56
2024/01/25 10:06:27;;;;;;;7.90;2.20;;;;;;;7.73;70.39;63742.00;5052959;28;20192;-54
2024/01/25 10:08:54;;;;;;;6.43;2.73;;;;;;;7.80;70.49;63751.59;5071234;28;20728;-55
2024/01/25 10:11:28;;;;;;;5.93;2.60;;;;;;;7.85;70.19;63757.59;5070895;28;20241;-56
2024/01/25 10:13:56;;;;;;;8.63;3.03;;;;;;;7.84;70.65;63756.50;5052149;28;20250;-56
2024/01/25 10:16:22;;;;;;;8.57;2.90;;;;;;;7.94;69.61;63764.91;5053364;28;20207;-54
2024/01/25 10:18:49;;;;;;;6.80;2.83;;;;;;;7.95;70.75;63765.47;5070762;28;20240;-54
2024/01/25 10:21:16;;;;;;;10.13;2.97;;;;;;;7.83;69.87;63757.38;5070493;28;20232;-53
2024/01/25 10:23:48;;;;;;;6.67;2.57;;;;;;;7.92;70.15;63764.69;5070336;28;20736;-54
2024/01/25 10:26:17;;;;;;;6.33;2.50;;;;;;;7.96;70.39;63766.56;5070824;28;20185;-54
2024/01/25 10:28:50;;;;;;;6.43;3.00;;;;;;;8.05;71.00;63776.94;5052435;28;20216;-54
2024/01/25 10:31:16;;;;;;;12.73;3.40;;;;;;;8.11;70.32;63783.47;5052415;28;20200;-54
2024/01/25 10:33:44;;;;;;;8.27;3.93;;;;;;;8.23;69.99;63796.56;5052439;28;20220;-54
2024/01/25 10:36:11;;;;;;;6.67;3.00;;;;;;;8.45;69.09;63823.13;5070729;28;20199;-54
2024/01/25 10:38:37;;;;;;;6.00;2.60;;;;;;;8.82;67.00;63863.00;5070243;28;20291;-54
2024/01/25 10:41:05;;;;;;;7.90;2.87;;;;;;;8.70;67.00;63847.38;5053187;28;20749;-55
2024/01/25 10:43:32;;;;;;;8.00;3.20;;;;;;;8.78;67.41;63858.63;5056413;28;20212;-55
2024/01/25 10:45:58;;;;;;;4.77;2.33;;;;;;;8.31;69.00;63805.34;5073944;28;20216;-55
2024/01/25 10:48:28;;;;;;;7.47;2.97;;;;;;;8.19;69.75;63792.22;5072347;28;20220;-55
2024/01/25 10:50:55;;;;;;;5.73;2.83;;;;;;;8.07;70.14;63781.63;5072928;28;20197;-55
2024/01/25 10:53:23;;;;;;;7.83;2.50;;;;;;;8.05;70.50;63776.94;5073080;28;20207;-54
2024/01/25 10:55:49;;;;;;;7.27;2.80;;;;;;;8.34;69.46;63808.59;5073835;28;20197;-56
2024/01/25 10:58:16;;;;;;;6.20;2.83;;;;;;;8.50;68.57;63827.50;5072275;28;20274;-56
2024/01/25 11:00:52;;;;;;;6.90;2.53;;;;;;;8.35;68.86;63809.69;5073265;28;20291;-56
2024/01/25 11:03:19;;;;;;;5.70;2.60;;;;;;;8.68;66.58;63847.72;5073945;28;20251;-55
2024/01/25 11:05:48;;;;;;;9.13;2.77;;;;;;;8.87;65.06;63865.94;5073597;28;20177;-56
2024/01/25 11:08:19;;;;;;;5.20;2.00;;;;;;;8.83;65.51;63866.06;5073508;28;20613;-56
2024/01/25 11:10:51;;;;;;;5.80;2.40;;;;;;;9.04;65.02;63884.53;5073674;28;20185;-54
2024/01/25 11:13:24;;;;;;;6.97;2.80;;;;;;;8.78;66.31;63856.13;5073603;28;20683;-56
2024/01/25 11:15:49;;;;;;;7.53;2.83;;;;;;;8.72;65.95;63851.53;5055837;28;20695;-54
2024/01/25 11:18:15;;;;;;;9.07;3.57;;;;;;;8.74;65.77;63851.19;5073347;28;20216;-54
2024/01/25 11:20:41;;;;;;;6.40;2.63;;;;;;;8.33;66.02;63810.03;5073568;28;20736;-55
2024/01/25 11:23:09;;;;;;;9.13;2.90;;;;;;;8.39;66.22;63816.56;5073060;28;20228;-58
2024/01/25 11:25:43;;;;;;;9.40;3.00;;;;;;;8.15;66.39;63787.84;5055183;28;20666;-57
2024/01/25 11:28:09;;;;;;;6.43;2.50;;;;;;;8.26;67.21;63801.84;5055142;28;20273;-58
2024/01/25 11:30:36;;;;;;;6.73;2.33;;;;;;;8.14;67.25;63786.22;5054789;28;20197;-57
2024/01/25 11:33:05;;;;;;;7.90;2.77;;;;;;;8.08;67.01;63782.16;5054604;28;20232;-55
2024/01/25 11:35:31;;;;;;;5.23;2.63;;;;;;;8.18;67.21;63793.09;5073206;28;20610;-58